Williamsport, Pennsylvania
Current Conditions -  °F | °C
As of 12:54 AM on Thursday 23 Oct 2014 (Local Time) from KIPT Reporting Station
Overcast Overcast  
Wind Chill: 52°   Ceiling: 2200
Heat Index: 52°   Visibility: 10mi
Dew Point: 42°   Wind: 13mph
Humidity: 69%   Direction: 350°N
Pressure: 29.96"   Gusts: 17mph
Location:  41.24°N, 77°W
Report Text: KIPT 230454Z AUTO 35011G15KT 10SM OVC022 11/06 A2996 RMK AO2 SLP147 T01110056 401220100
Loading
Personal Weather Stations






























Interactive Weather Map
Tropical Storm Tracking
New forecast layout! Learn more

10-Day Weather Forecast

Advertisements
Track Severe Weather on mobile